Time;durP1;ratioP1;P1;durP2;ratioP2;P2;SDS_P1;SDS_P2;PMS_P1;PMS_P2;Temp;Humidity;BMP_temperature;BMP_pressure;BME280_temperature;BME280_humidity;BME280_pressure;Samples;Min_cycle;Max_cycle;Signal;HPM_P1;HPM_P2
2023/10/15 00:01:45;;;;;;;1999.90;999.90;;;7.90;99.90;;;;;;5115991;28;20024;-69
2023/10/15 00:04:12;;;;;;;1999.90;999.90;;;7.90;99.90;;;;;;5116784;28;20051;-69
2023/10/15 00:06:41;;;;;;;;;;;7.90;99.90;;;;;;5099417;28;20028;-70
2023/10/15 00:09:07;;;;;;;1999.90;999.90;;;7.90;99.90;;;;;;5116588;28;19950;-69
2023/10/15 00:11:33;;;;;;;1999.90;999.90;;;7.90;99.90;;;;;;5115667;28;20028;-69
2023/10/15 00:14:00;;;;;;;1999.90;999.90;;;8.00;99.90;;;;;;5087312;28;20044;-76
2023/10/15 00:16:28;;;;;;;1999.90;999.90;;;7.90;99.90;;;;;;5116742;28;20094;-76
2023/10/15 00:18:54;;;;;;;1999.90;999.90;;;7.90;99.90;;;;;;5116864;28;20372;-69
2023/10/15 00:21:20;;;;;;;1999.90;999.90;;;7.90;99.90;;;;;;5099287;28;20035;-69
2023/10/15 00:23:47;;;;;;;1999.90;999.90;;;7.90;99.90;;;;;;5095983;28;20021;-69
2023/10/15 00:26:15;;;;;;;1999.90;999.90;;;7.90;99.90;;;;;;5102858;28;20016;-70
2023/10/15 00:28:45;;;;;;;1999.90;999.90;;;8.00;99.90;;;;;;5104652;28;20024;-69
2023/10/15 00:31:14;;;;;;;1999.90;999.90;;;8.10;99.90;;;;;;5114638;28;20098;-69
2023/10/15 00:33:48;;;;;;;1999.90;999.90;;;8.10;99.90;;;;;;5112553;28;20028;-69
2023/10/15 00:36:15;;;;;;;1999.90;999.90;;;8.00;99.90;;;;;;5115026;27;20051;-69
2023/10/15 00:38:43;;;;;;;1999.90;999.90;;;7.90;99.90;;;;;;5093906;28;20028;-70
2023/10/15 00:41:14;;;;;;;1999.90;999.90;;;8.00;99.90;;;;;;5080379;28;20059;-83
2023/10/15 00:43:58;;;;;;;1999.90;999.90;;;8.10;99.90;;;;;;5105164;28;20027;-70
2023/10/15 00:46:28;;;;;;;1999.90;999.90;;;8.10;99.90;;;;;;5118015;28;20011;-70
2023/10/15 00:49:12;;;;;;;1999.90;999.90;;;8.10;99.90;;;;;;5117447;28;20039;-69
2023/10/15 00:51:41;;;;;;;1999.90;999.90;;;8.10;99.90;;;;;;5117060;28;20028;-69
2023/10/15 00:54:15;;;;;;;1999.90;999.90;;;8.00;99.90;;;;;;5110778;28;20024;-69
2023/10/15 00:56:44;;;;;;;1999.90;999.90;;;8.00;99.90;;;;;;5079252;28;20036;-69
2023/10/15 00:59:17;;;;;;;1999.90;999.90;;;8.00;99.90;;;;;;5104848;28;20414;-75
2023/10/15 01:02:04;;;;;;;1999.90;999.90;;;8.00;99.90;;;;;;5098114;28;20040;-70
2023/10/15 01:04:36;;;;;;;1999.90;999.90;;;8.10;99.90;;;;;;5110014;28;20032;-69
2023/10/15 01:07:51;;;;;;;1999.90;999.90;;;8.00;99.90;;;;;;5108247;28;20023;-69
2023/10/15 01:09:51;;;;;;;1999.90;999.90;;;8.00;99.90;;;;;;5092840;28;20386;-69
2023/10/15 01:12:24;;;;;;;1999.90;999.90;;;8.00;99.90;;;;;;5110710;28;20112;-70
2023/10/15 01:14:50;;;;;;;1999.90;999.90;;;8.00;99.90;;;;;;5116209;28;20561;-70
2023/10/15 01:17:16;;;;;;;1999.90;999.90;;;8.00;99.90;;;;;;5116713;28;20096;-70
2023/10/15 01:19:42;;;;;;;1999.90;999.90;;;8.00;99.90;;;;;;5112940;28;20296;-69
2023/10/15 01:22:10;;;;;;;1999.90;999.90;;;8.00;99.90;;;;;;5102431;28;20061;-69
2023/10/15 01:24:42;;;;;;;1999.90;999.90;;;8.00;99.90;;;;;;5099672;27;20028;-69
2023/10/15 01:27:09;;;;;;;1999.90;999.90;;;8.00;99.90;;;;;;5108910;28;20026;-69
2023/10/15 01:29:41;;;;;;;1999.90;999.90;;;8.00;99.90;;;;;;5097530;28;20319;-70
2023/10/15 01:32:10;;;;;;;1999.90;999.90;;;8.00;99.90;;;;;;5107120;28;20415;-69
2023/10/15 01:34:37;;;;;;;1999.90;999.90;;;7.90;99.90;;;;;;5105942;28;20485;-69
2023/10/15 01:37:15;;;;;;;;;;;8.00;99.90;;;;;;5114598;28;20042;-70
2023/10/15 01:40:00;;;;;;;1999.90;999.90;;;7.90;99.90;;;;;;5088556;28;19911;-70
2023/10/15 01:45:13;;;;;;;1999.90;999.90;;;7.80;99.90;;;;;;5109157;28;20110;-69
2023/10/15 01:50:16;;;;;;;1999.90;999.90;;;7.80;99.90;;;;;;5114949;28;20024;-79
2023/10/15 01:52:42;;;;;;;1999.90;999.90;;;7.70;99.90;;;;;;5110180;28;20024;-69
2023/10/15 01:55:09;;;;;;;1999.90;999.90;;;7.60;99.90;;;;;;5116314;28;20115;-82
2023/10/15 01:57:36;;;;;;;1999.90;999.90;;;7.60;99.90;;;;;;5113641;28;20027;-69
2023/10/15 02:00:13;;;;;;;1999.90;999.90;;;7.60;99.90;;;;;;5115749;28;20032;-69
2023/10/15 02:02:40;;;;;;;1999.90;999.90;;;7.60;99.90;;;;;;5112523;28;20144;-82
2023/10/15 02:05:25;;;;;;;1999.90;999.90;;;7.60;99.90;;;;;;5098112;28;20055;-81
2023/10/15 02:07:51;;;;;;;1999.90;999.90;;;7.60;99.90;;;;;;5095900;28;20027;-69
2023/10/15 02:10:17;;;;;;;1999.90;999.90;;;7.60;99.90;;;;;;5114240;28;20024;-79
2023/10/15 02:12:43;;;;;;;1999.90;999.90;;;7.60;99.90;;;;;;5114238;28;20031;-70
2023/10/15 02:15:22;;;;;;;1999.90;999.90;;;7.60;99.90;;;;;;5114934;28;20107;-70
2023/10/15 02:17:51;;;;;;;1999.90;999.90;;;7.60;99.90;;;;;;5113799;28;20388;-69
2023/10/15 02:20:26;;;;;;;1999.90;999.90;;;7.70;99.90;;;;;;5115050;28;20066;-69
2023/10/15 02:22:53;;;;;;;1999.90;999.90;;;7.70;99.90;;;;;;5093521;28;20028;-69
2023/10/15 02:25:27;;;;;;;1999.90;999.90;;;7.70;99.90;;;;;;5089037;28;20020;-69
2023/10/15 02:27:52;;;;;;;1999.90;999.90;;;7.80;99.90;;;;;;5082966;28;20062;-71
2023/10/15 02:30:18;;;;;;;1999.90;999.90;;;7.90;99.90;;;;;;5096035;28;20047;-87
2023/10/15 02:32:44;;;;;;;1999.90;999.90;;;7.90;99.90;;;;;;5101437;28;20094;-70
2023/10/15 02:35:13;;;;;;;1999.90;999.90;;;7.90;99.90;;;;;;5111464;27;20110;-69
2023/10/15 02:37:40;;;;;;;1999.90;999.90;;;7.90;99.90;;;;;;5098480;28;20390;-84
2023/10/15 02:40:16;;;;;;;1999.90;999.90;;;8.00;99.90;;;;;;5106298;27;20039;-70
2023/10/15 02:42:52;;;;;;;1999.90;999.90;;;8.00;99.90;;;;;;5089081;28;20030;-69
2023/10/15 02:45:19;;;;;;;1999.90;999.90;;;8.00;99.90;;;;;;5115053;28;20065;-69
2023/10/15 02:47:55;;;;;;;1999.90;999.90;;;8.10;99.90;;;;;;5115366;28;20027;-69
2023/10/15 02:50:26;;;;;;;1999.90;999.90;;;8.10;99.90;;;;;;5115352;28;20024;-68
2023/10/15 02:52:54;;;;;;;1999.90;999.90;;;8.10;99.90;;;;;;5115583;28;20019;-69
2023/10/15 02:55:26;;;;;;;1999.90;999.90;;;8.10;99.90;;;;;;5096767;28;20028;-78
2023/10/15 02:58:00;;;;;;;1999.90;999.90;;;8.10;99.90;;;;;;5114856;28;20030;-69
2023/10/15 03:00:28;;;;;;;1999.90;999.90;;;8.10;99.90;;;;;;5114834;28;20024;-68
2023/10/15 03:02:55;;;;;;;1999.90;999.90;;;8.00;99.90;;;;;;5115411;28;20103;-67
2023/10/15 03:05:30;;;;;;;1999.90;999.90;;;8.00;99.90;;;;;;5100383;28;20024;-68
2023/10/15 03:07:59;;;;;;;1999.90;999.90;;;7.90;99.90;;;;;;5088971;28;20115;-68
2023/10/15 03:10:44;;;;;;;1999.90;999.90;;;7.80;99.90;;;;;;5109790;28;20031;-68
2023/10/15 03:13:14;;;;;;;1999.90;999.90;;;7.80;99.90;;;;;;5110585;28;20118;-67
2023/10/15 03:15:46;;;;;;;1999.90;999.90;;;7.70;99.90;;;;;;5108928;28;20364;-68
2023/10/15 03:18:14;;;;;;;1999.90;999.90;;;7.70;99.90;;;;;;5103361;28;20322;-69
2023/10/15 03:20:48;;;;;;;1999.90;999.90;;;7.60;99.90;;;;;;5116408;28;20032;-68
2023/10/15 03:23:16;;;;;;;1999.90;999.90;;;7.60;99.90;;;;;;5087553;28;20055;-68
2023/10/15 03:25:42;;;;;;;1999.90;999.90;;;7.50;99.90;;;;;;5109368;28;20028;-68
2023/10/15 03:28:12;;;;;;;1999.90;999.90;;;7.40;99.90;;;;;;5110362;28;20028;-69
2023/10/15 03:30:44;;;;;;;1999.90;999.90;;;7.30;99.90;;;;;;5096637;28;20081;-69
2023/10/15 03:33:11;;;;;;;1999.90;999.90;;;7.20;99.90;;;;;;5107516;28;20035;-74
2023/10/15 03:35:45;;;;;;;1999.90;999.90;;;7.20;99.90;;;;;;5105848;28;20027;-69
2023/10/15 03:38:14;;;;;;;1999.90;999.90;;;7.10;99.90;;;;;;5116871;28;20310;-69
2023/10/15 03:40:47;;;;;;;1999.90;999.90;;;7.10;99.90;;;;;;5106893;28;20038;-69
2023/10/15 03:43:20;;;;;;;1999.90;999.90;;;7.20;99.90;;;;;;5116692;28;20024;-69
2023/10/15 03:45:52;;;;;;;1999.90;999.90;;;7.20;99.90;;;;;;5106761;28;20081;-68
2023/10/15 03:48:28;;;;;;;1999.90;999.90;;;7.30;99.90;;;;;;5113044;28;20315;-84
2023/10/15 03:50:54;;;;;;;1999.90;999.90;;;7.40;99.90;;;;;;5108932;28;20432;-68
2023/10/15 03:53:28;;;;;;;1999.90;999.90;;;7.40;99.90;;;;;;5116555;28;20027;-71
2023/10/15 03:56:04;;;;;;;1999.90;999.90;;;7.50;99.90;;;;;;5118883;28;20028;-69
2023/10/15 03:58:33;;;;;;;1999.90;999.90;;;7.50;99.90;;;;;;5112699;28;20041;-67
2023/10/15 04:01:17;;;;;;;1999.90;999.90;;;7.50;99.90;;;;;;5118109;28;20046;-68
2023/10/15 04:03:49;;;;;;;1999.90;999.90;;;7.60;99.90;;;;;;5113386;28;20370;-67
2023/10/15 04:06:17;;;;;;;1999.90;999.90;;;7.60;99.90;;;;;;5118673;28;20030;-67
2023/10/15 04:09:26;;;;;;;1999.90;999.90;;;7.50;99.90;;;;;;5097962;28;20662;-68
2023/10/15 04:11:42;;;;;;;1999.90;999.90;;;7.50;99.90;;;;;;5095164;28;20445;-68
2023/10/15 04:16:47;;;;;;;1999.90;999.90;;;7.30;99.90;;;;;;5118854;28;20027;-68
2023/10/15 04:19:17;;;;;;;1999.90;999.90;;;7.30;99.90;;;;;;5111631;28;20028;-68
2023/10/15 04:21:44;;;;;;;1999.90;999.90;;;7.30;99.90;;;;;;5084101;28;20032;-68
2023/10/15 04:24:14;;;;;;;1999.90;999.90;;;7.20;99.90;;;;;;5115311;28;20026;-68
2023/10/15 04:26:42;;;;;;;1999.90;999.90;;;7.20;99.90;;;;;;5100320;28;20024;-82
2023/10/15 04:29:18;;;;;;;1999.90;999.90;;;7.10;99.90;;;;;;5116830;28;20030;-82
2023/10/15 04:32:04;;;;;;;1999.90;999.90;;;7.10;99.90;;;;;;5118420;28;20373;-67
2023/10/15 04:34:32;;;;;;;1999.90;999.90;;;7.20;99.90;;;;;;5117571;28;20369;-85
2023/10/15 04:37:01;;;;;;;1999.90;999.90;;;7.20;99.90;;;;;;5090459;28;20074;-67
2023/10/15 04:39:28;;;;;;;1999.90;999.90;;;7.10;99.90;;;;;;5115418;28;20054;-74
2023/10/15 04:41:55;;;;;;;1999.90;999.90;;;7.00;99.90;;;;;;5113827;28;20024;-68
2023/10/15 04:44:28;;;;;;;1999.90;999.90;;;6.90;99.90;;;;;;5108007;28;20287;-68
2023/10/15 04:47:03;;;;;;;1999.90;999.90;;;6.80;99.90;;;;;;5099579;28;20023;-68
2023/10/15 04:49:31;;;;;;;1999.90;999.90;;;6.80;99.90;;;;;;5115300;28;20096;-83
2023/10/15 04:51:58;;;;;;;1999.90;999.90;;;6.90;99.90;;;;;;5117389;28;20035;-69
2023/10/15 04:54:24;;;;;;;1999.90;999.90;;;6.90;99.90;;;;;;5104490;28;20024;-68
2023/10/15 04:56:51;;;;;;;1999.90;999.90;;;7.00;99.90;;;;;;5096903;28;20035;-68
2023/10/15 04:59:17;;;;;;;1999.90;999.90;;;7.10;99.90;;;;;;5096912;28;20035;-69
2023/10/15 05:01:45;;;;;;;1999.90;999.90;;;7.30;99.90;;;;;;5100884;28;20036;-68
2023/10/15 05:04:13;;;;;;;1999.90;999.90;;;7.40;99.90;;;;;;5078975;28;20069;-70
2023/10/15 05:06:39;;;;;;;1999.90;999.90;;;7.40;99.90;;;;;;5108835;28;20066;-68
2023/10/15 05:09:09;;;;;;;1999.90;999.90;;;7.30;99.90;;;;;;5105934;28;20025;-68
2023/10/15 05:11:35;;;;;;;1999.90;999.90;;;7.40;99.90;;;;;;5110315;28;20051;-69
2023/10/15 05:14:01;;;;;;;1999.90;999.90;;;7.30;99.90;;;;;;5105683;28;20015;-69
2023/10/15 05:16:27;;;;;;;1999.90;999.90;;;7.20;99.90;;;;;;5089924;28;20425;-83
2023/10/15 05:18:52;;;;;;;1999.90;999.90;;;7.10;99.90;;;;;;5110489;28;20201;-69
2023/10/15 05:21:18;;;;;;;1999.90;999.90;;;7.10;99.90;;;;;;5098309;28;20020;-69
2023/10/15 05:23:45;;;;;;;1999.90;999.90;;;7.00;99.90;;;;;;5092379;28;20468;-68
2023/10/15 05:26:12;;;;;;;1999.90;999.90;;;6.90;99.90;;;;;;5109206;28;20046;-68
2023/10/15 05:28:38;;;;;;;1999.90;999.90;;;6.80;99.90;;;;;;5108772;28;20059;-82
2023/10/15 05:31:03;;;;;;;1999.90;999.90;;;6.80;99.90;;;;;;5108146;28;20090;-69
2023/10/15 05:33:29;;;;;;;1999.90;999.90;;;6.70;99.90;;;;;;5111846;28;20016;-83
2023/10/15 05:35:56;;;;;;;1999.90;999.90;;;6.80;99.90;;;;;;5112362;28;20024;-69
2023/10/15 05:38:22;;;;;;;1999.90;999.90;;;6.80;99.90;;;;;;5110988;28;20099;-69
2023/10/15 05:40:49;;;;;;;1999.90;999.90;;;6.80;99.90;;;;;;5112925;28;20408;-68
2023/10/15 05:43:17;;;;;;;1999.90;999.90;;;6.70;99.90;;;;;;5109519;28;20031;-69
2023/10/15 05:45:47;;;;;;;1999.90;999.90;;;6.70;99.90;;;;;;5105802;28;20746;-68
2023/10/15 05:48:13;;;;;;;1999.90;999.90;;;6.70;99.90;;;;;;5107618;28;20441;-69
2023/10/15 05:50:39;;;;;;;1999.90;999.90;;;6.70;99.90;;;;;;5104472;28;20048;-84
2023/10/15 05:53:06;;;;;;;1999.90;999.90;;;6.80;99.90;;;;;;5112640;28;20032;-70
2023/10/15 05:55:32;;;;;;;1999.90;999.90;;;6.80;99.90;;;;;;5104138;28;20016;-69
2023/10/15 05:57:58;;;;;;;1999.90;999.90;;;6.80;99.90;;;;;;5093256;28;20123;-82
2023/10/15 06:00:26;;;;;;;1999.90;999.90;;;6.90;99.90;;;;;;5105298;28;20263;-69
2023/10/15 06:02:56;;;;;;;1999.90;999.90;;;6.90;99.90;;;;;;5099503;28;20760;-82
2023/10/15 06:05:22;;;;;;;1999.90;999.90;;;7.00;99.90;;;;;;5090675;28;20023;-68
2023/10/15 06:07:49;;;;;;;1999.90;999.90;;;6.90;99.90;;;;;;5107511;28;20103;-69
2023/10/15 06:10:16;;;;;;;1999.90;999.90;;;6.90;99.90;;;;;;5111246;28;20027;-87
2023/10/15 06:12:42;;;;;;;1999.90;999.90;;;6.80;99.90;;;;;;5113359;28;20020;-69
2023/10/15 06:15:09;;;;;;;1999.90;999.90;;;6.80;99.90;;;;;;5112049;28;20077;-69
2023/10/15 06:17:35;;;;;;;;;;;6.80;99.90;;;;;;5110097;27;20028;-69
2023/10/15 06:20:12;;;;;;;1999.90;999.90;;;6.80;99.90;;;;;;5111120;28;20333;-69
2023/10/15 06:22:42;;;;;;;1999.90;999.90;;;6.90;99.90;;;;;;5102120;28;20280;-69
2023/10/15 06:25:12;;;;;;;1999.90;999.90;;;6.90;99.90;;;;;;5109452;28;20315;-69
2023/10/15 06:27:39;;;;;;;1999.90;999.90;;;6.90;99.90;;;;;;5107871;28;20023;-69
2023/10/15 06:30:14;;;;;;;1999.90;999.90;;;6.90;99.90;;;;;;5084084;28;20411;-69
2023/10/15 06:32:42;;;;;;;1999.90;999.90;;;6.90;99.90;;;;;;5107691;28;20386;-75
2023/10/15 06:35:08;;;;;;;1999.90;999.90;;;6.90;99.90;;;;;;5100379;28;20028;-69
2023/10/15 06:37:34;;;;;;;1999.90;999.90;;;6.90;99.90;;;;;;5112664;28;20023;-69
2023/10/15 06:40:00;;;;;;;1999.90;999.90;;;7.00;99.90;;;;;;5102867;28;20043;-69
2023/10/15 06:42:26;;;;;;;1999.90;999.90;;;7.10;99.90;;;;;;5112719;28;20436;-69
2023/10/15 06:44:52;;;;;;;1999.90;999.90;;;7.20;99.90;;;;;;5113435;28;20016;-68
2023/10/15 06:47:18;;;;;;;1999.90;999.90;;;7.30;99.90;;;;;;5115366;28;20035;-69
2023/10/15 06:49:44;;;;;;;1999.90;999.90;;;7.40;99.90;;;;;;5111591;28;20124;-71
2023/10/15 06:52:10;;;;;;;1999.90;999.90;;;7.30;99.90;;;;;;5112859;28;20148;-69
2023/10/15 06:54:36;;;;;;;1999.90;999.90;;;7.30;99.90;;;;;;5113187;28;20139;-69
2023/10/15 06:57:04;;;;;;;1999.90;999.90;;;7.30;99.90;;;;;;5109956;27;20031;-69
2023/10/15 06:59:31;;;;;;;1999.90;999.90;;;7.40;99.90;;;;;;5110555;28;20134;-69
2023/10/15 07:01:56;;;;;;;;;;;7.40;99.90;;;;;;5104870;28;20410;-68
2023/10/15 07:04:24;;;;;;;1999.90;999.90;;;7.50;99.90;;;;;;5104539;28;20100;-68
2023/10/15 07:06:51;;;;;;;1999.90;999.90;;;7.50;99.90;;;;;;5109611;28;20470;-71
2023/10/15 07:09:18;;;;;;;1999.90;999.90;;;7.50;99.90;;;;;;5102984;28;20024;-69
2023/10/15 07:11:44;;;;;;;1999.90;999.90;;;7.40;99.90;;;;;;5108995;28;20044;-69
2023/10/15 07:14:10;;;;;;;1999.90;999.90;;;7.40;99.90;;;;;;5107188;28;20077;-68
2023/10/15 07:16:40;;;;;;;1999.90;999.90;;;7.40;99.90;;;;;;5112512;28;20345;-68
2023/10/15 07:19:07;;;;;;;1999.90;999.90;;;7.40;99.90;;;;;;5094910;28;20431;-69
2023/10/15 07:21:32;;;;;;;1999.90;999.90;;;7.40;99.90;;;;;;5111045;28;20062;-67
2023/10/15 07:23:58;;;;;;;1999.90;999.90;;;7.20;99.90;;;;;;5108304;28;20402;-68
2023/10/15 07:26:24;;;;;;;1999.90;999.90;;;7.20;99.90;;;;;;5110433;28;20054;-68
2023/10/15 07:28:50;;;;;;;1999.90;999.90;;;7.10;99.90;;;;;;5112436;28;20023;-67
2023/10/15 07:31:16;;;;;;;1999.90;999.90;;;7.10;99.90;;;;;;5107234;28;20066;-67
2023/10/15 07:33:42;;;;;;;1999.90;999.90;;;7.10;99.90;;;;;;5096316;28;20059;-80
2023/10/15 07:36:08;;;;;;;1999.90;999.90;;;7.20;99.90;;;;;;5106946;28;20070;-68
2023/10/15 07:38:36;;;;;;;1999.90;999.90;;;7.30;99.90;;;;;;5112020;28;20035;-67
2023/10/15 07:41:02;;;;;;;1999.90;999.90;;;7.20;99.90;;;;;;5108404;28;20403;-69
2023/10/15 07:43:27;;;;;;;1999.90;999.90;;;7.20;99.90;;;;;;5090738;28;20031;-78
2023/10/15 07:45:53;;;;;;;1999.90;999.90;;;7.10;99.90;;;;;;5097707;28;20103;-67
2023/10/15 07:48:19;;;;;;;1999.90;999.90;;;7.20;99.90;;;;;;5111338;28;20040;-68
2023/10/15 07:50:45;;;;;;;1999.90;999.90;;;7.20;99.90;;;;;;5102842;28;20043;-69
2023/10/15 07:53:12;;;;;;;1999.90;999.90;;;7.30;99.90;;;;;;5114990;28;20323;-68
2023/10/15 07:55:38;;;;;;;1999.90;999.90;;;7.50;99.90;;;;;;5109100;28;20032;-68
2023/10/15 07:58:04;;;;;;;1999.90;999.90;;;7.80;99.90;;;;;;5107452;28;20020;-68
2023/10/15 08:00:30;;;;;;;1999.90;999.90;;;8.00;99.90;;;;;;5112373;28;20062;-69
2023/10/15 08:02:59;;;;;;;1999.90;999.90;;;8.20;99.90;;;;;;5104628;28;20358;-68
2023/10/15 08:05:25;;;;;;;1999.90;999.90;;;8.40;99.90;;;;;;5104515;28;20314;-72
2023/10/15 08:07:52;;;;;;;1999.90;999.90;;;8.70;99.90;;;;;;5107351;28;20419;-69
2023/10/15 08:10:20;;;;;;;;;;;8.90;99.90;;;;;;5099111;28;20035;-68
2023/10/15 08:12:50;;;;;;;1999.90;999.90;;;9.10;99.90;;;;;;5106478;28;20233;-67
2023/10/15 08:15:17;;;;;;;1999.90;999.90;;;9.50;99.90;;;;;;5117423;28;20318;-86
2023/10/15 08:17:43;;;;;;;1999.90;999.90;;;10.10;99.90;;;;;;5114367;28;20024;-69
2023/10/15 08:20:09;;;;;;;1999.90;999.90;;;10.50;99.90;;;;;;5113494;28;20038;-67
2023/10/15 08:22:44;;;;;;;1999.90;999.90;;;10.50;99.90;;;;;;5102938;28;20024;-68
2023/10/15 08:25:13;;;;;;;1999.90;999.90;;;10.30;99.90;;;;;;5114828;28;20035;-68
2023/10/15 08:27:44;;;;;;;1999.90;999.90;;;10.10;99.90;;;;;;5113748;28;20028;-68
2023/10/15 08:30:13;;;;;;;1999.90;999.90;;;9.90;99.90;;;;;;5113226;28;20045;-68
2023/10/15 08:32:41;;;;;;;1999.90;999.90;;;9.70;99.90;;;;;;5110705;28;20406;-68
2023/10/15 08:35:13;;;;;;;1999.90;999.90;;;9.50;99.90;;;;;;5100019;28;20032;-67
2023/10/15 08:37:40;;;;;;;1999.90;999.90;;;9.20;99.90;;;;;;5086191;28;20055;-68
2023/10/15 08:40:06;;;;;;;1999.90;999.90;;;8.90;99.90;;;;;;5111230;28;20060;-69
2023/10/15 08:42:42;;;;;;;1999.90;999.90;;;8.60;99.90;;;;;;5090814;28;20417;-85
2023/10/15 08:45:09;;;;;;;1999.90;999.90;;;8.50;99.90;;;;;;5105642;28;20028;-70
2023/10/15 08:47:35;;;;;;;;;;;8.40;99.90;;;;;;5112265;28;20028;-89
2023/10/15 08:50:02;;;;;;;1999.90;999.90;;;8.30;99.90;;;;;;5113314;28;20191;-69
2023/10/15 08:52:30;;;;;;;1999.90;999.90;;;8.30;99.90;;;;;;5108440;28;20024;-87
2023/10/15 08:54:59;;;;;;;1999.90;999.90;;;8.40;99.90;;;;;;5091211;28;20058;-83
2023/10/15 08:57:26;;;;;;;1999.90;999.90;;;8.40;99.90;;;;;;5094950;28;20427;-84
2023/10/15 08:59:53;;;;;;;1999.90;999.90;;;8.60;99.90;;;;;;5110179;28;20059;-68
2023/10/15 09:02:19;;;;;;;1999.90;999.90;;;9.10;99.90;;;;;;5112212;28;20110;-69
2023/10/15 09:04:45;;;;;;;1999.90;999.90;;;9.40;99.90;;;;;;5110819;28;20112;-82
2023/10/15 09:07:14;;;;;;;1999.90;999.90;;;9.40;99.90;;;;;;5113748;28;20118;-68
2023/10/15 09:09:41;;;;;;;1999.90;999.90;;;9.30;99.90;;;;;;5107521;28;20024;-68
2023/10/15 09:12:07;;;;;;;1999.90;999.90;;;9.20;99.90;;;;;;5112602;28;20036;-68
2023/10/15 09:14:43;;;;;;;1999.90;999.90;;;9.20;99.90;;;;;;5115338;28;20371;-69
2023/10/15 09:17:14;;;;;;;1999.90;999.90;;;9.30;99.90;;;;;;5115454;28;20094;-80
2023/10/15 09:19:48;;;;;;;1999.90;999.90;;;9.60;99.90;;;;;;5114229;28;20038;-68
2023/10/15 09:22:14;;;;;;;1999.90;999.90;;;9.90;99.90;;;;;;5112460;27;20020;-81
2023/10/15 09:24:44;;;;;;;1999.90;999.90;;;10.20;99.90;;;;;;5107640;28;20093;-69
2023/10/15 09:27:10;;;;;;;1999.90;999.90;;;10.30;99.90;;;;;;5111440;28;20106;-68
2023/10/15 09:29:36;;;;;;;1999.90;999.90;;;10.10;99.90;;;;;;5107805;28;20023;-68
2023/10/15 09:32:04;;;;;;;1999.90;999.90;;;10.10;99.90;;;;;;5113899;28;20023;-84
2023/10/15 09:34:37;;;;;;;1999.90;999.90;;;10.10;99.90;;;;;;5111817;28;20023;-68
2023/10/15 09:37:05;;;;;;;1999.90;999.90;;;10.10;99.90;;;;;;5096969;28;20031;-69
2023/10/15 09:39:32;;;;;;;1999.90;999.90;;;10.00;99.90;;;;;;5111110;28;20114;-69
2023/10/15 09:42:04;;;;;;;1999.90;999.90;;;9.90;99.90;;;;;;5112760;28;20530;-69
2023/10/15 09:44:35;;;;;;;1999.90;999.90;;;10.00;99.90;;;;;;5112110;28;20127;-68
2023/10/15 09:47:04;;;;;;;1999.90;999.90;;;10.10;99.90;;;;;;5097446;28;20391;-70
2023/10/15 09:49:35;;;;;;;1999.90;999.90;;;10.20;99.90;;;;;;5103220;28;20040;-69
2023/10/15 09:52:04;;;;;;;1999.90;999.90;;;10.30;99.90;;;;;;5106735;27;20027;-69
2023/10/15 09:54:32;;;;;;;1999.90;999.90;;;10.40;99.90;;;;;;5107789;28;20024;-68
2023/10/15 09:57:05;;;;;;;1999.90;999.90;;;10.40;99.90;;;;;;5107816;28;20035;-68
2023/10/15 09:59:53;;;;;;;1999.90;999.90;;;10.30;99.90;;;;;;4713643;27;10000919;-68
2023/10/15 10:02:32;;;;;;;1999.90;999.90;;;10.20;99.90;;;;;;5047340;28;20029;-69
2023/10/15 10:05:44;;;;;;;1999.90;999.90;;;10.30;99.90;;;;;;5047116;28;20499;-68
2023/10/15 10:08:41;;;;;;;1999.90;999.90;;;10.20;99.90;;;;;;5048752;28;20335;-68
2023/10/15 10:11:14;;;;;;;1999.90;999.90;;;10.30;99.90;;;;;;5046871;28;20031;-68
2023/10/15 10:13:57;;;;;;;1999.90;999.90;;;10.20;99.90;;;;;;5046792;28;20543;-67
2023/10/15 10:16:28;;;;;;;1999.90;999.90;;;9.90;99.90;;;;;;5051467;28;20036;-67
2023/10/15 10:18:55;;;;;;;1999.90;999.90;;;9.40;99.90;;;;;;5049160;28;20041;-66
2023/10/15 10:21:22;;;;;;;1999.90;999.90;;;9.00;99.90;;;;;;5052083;28;20323;-70
2023/10/15 10:23:53;;;;;;;1999.90;999.90;;;8.70;99.90;;;;;;5051309;28;20029;-82
2023/10/15 10:26:19;;;;;;;1999.90;999.90;;;8.50;99.90;;;;;;5036863;28;20052;-80
2023/10/15 10:28:46;;;;;;;;;;;8.50;99.90;;;;;;5040948;28;20424;-68
2023/10/15 10:31:13;;;;;;;1999.90;999.90;;;8.40;99.90;;;;;;5042757;28;19966;-67
2023/10/15 10:33:49;;;;;;;1999.90;999.90;;;8.40;99.90;;;;;;5042814;28;20389;-67
2023/10/15 10:36:18;;;;;;;1999.90;999.90;;;8.40;99.90;;;;;;5032708;28;20110;-75
2023/10/15 10:39:00;;;;;;;1999.90;999.90;;;8.50;99.90;;;;;;5048984;28;20096;-68
2023/10/15 10:41:39;;;;;;;1999.90;999.90;;;8.50;99.90;;;;;;5047285;28;20116;-67
2023/10/15 10:44:09;;;;;;;1999.90;999.90;;;8.60;99.90;;;;;;5044683;28;20037;-68
2023/10/15 10:46:44;;;;;;;1999.90;999.90;;;8.70;99.90;;;;;;5050387;28;20120;-68
2023/10/15 10:49:18;;;;;;;1999.90;999.90;;;8.90;99.90;;;;;;5049746;28;20110;-68
2023/10/15 10:52:14;;;;;;;1999.90;999.90;;;9.20;99.90;;;;;;5033838;28;20045;-67
2023/10/15 10:54:40;;;;;;;1999.90;999.90;;;9.40;99.90;;;;;;5042617;28;20367;-67
2023/10/15 10:57:07;;;;;;;1999.90;999.90;;;9.40;99.90;;;;;;5047983;28;20070;-67
2023/10/15 10:59:34;;;;;;;1999.90;999.90;;;9.60;99.90;;;;;;5039810;28;20025;-67
2023/10/15 11:02:00;;;;;;;1999.90;999.90;;;9.70;99.90;;;;;;5043208;28;20032;-81
2023/10/15 11:04:26;;;;;;;1999.90;999.90;;;9.70;99.90;;;;;;5047115;28;20445;-67
2023/10/15 11:06:52;;;;;;;1999.90;999.90;;;9.70;99.90;;;;;;5041557;28;20017;-67
2023/10/15 11:09:28;;;;;;;1999.90;999.90;;;9.90;99.90;;;;;;5032626;28;20412;-67
2023/10/15 11:11:55;;;;;;;1999.90;999.90;;;9.90;99.90;;;;;;5049138;28;20273;-67
2023/10/15 11:14:27;;;;;;;1999.90;999.90;;;10.00;99.90;;;;;;5045899;28;20024;-67
2023/10/15 11:16:55;;;;;;;1999.90;999.90;;;10.10;99.90;;;;;;5050114;28;20029;-84
2023/10/15 11:19:25;;;;;;;1999.90;999.90;;;10.30;99.90;;;;;;5043264;28;20039;-75
2023/10/15 11:21:52;;;;;;;1999.90;999.90;;;10.30;99.90;;;;;;5041114;28;20029;-67
2023/10/15 11:24:24;;;;;;;1999.90;999.90;;;10.40;99.90;;;;;;5046852;28;20021;-67
2023/10/15 11:26:54;;;;;;;1999.90;999.90;;;10.50;99.90;;;;;;5047928;28;20021;-67
2023/10/15 11:29:22;;;;;;;1999.90;999.90;;;10.50;99.90;;;;;;5044311;28;20246;-66
2023/10/15 11:31:49;;;;;;;1999.90;999.90;;;10.60;99.90;;;;;;5041856;28;20491;-67
2023/10/15 11:34:17;;;;;;;1999.90;999.90;;;10.70;99.90;;;;;;5048559;28;20056;-67
2023/10/15 11:36:44;;;;;;;1999.90;999.90;;;10.60;99.90;;;;;;5043552;28;20100;-67
2023/10/15 11:39:25;;;;;;;1999.90;999.90;;;10.70;99.90;;;;;;5045246;28;20060;-67
2023/10/15 11:41:56;;;;;;;1999.90;999.90;;;10.70;99.90;;;;;;5047960;28;20162;-72
2023/10/15 11:44:26;;;;;;;1999.90;999.90;;;10.80;99.90;;;;;;5064782;28;20025;-68
2023/10/15 11:47:08;;;;;;;1999.90;999.90;;;10.80;99.90;;;;;;5047375;28;20021;-68
2023/10/15 11:49:38;;;;;;;1999.90;999.90;;;10.90;99.90;;;;;;5042747;28;20040;-82
2023/10/15 11:52:11;;;;;;;1999.90;999.90;;;10.80;99.90;;;;;;5046706;28;20025;-66
2023/10/15 11:54:43;;;;;;;1999.90;999.90;;;11.00;99.90;;;;;;5046002;28;20053;-66
2023/10/15 11:57:16;;;;;;;1999.90;999.90;;;10.90;99.90;;;;;;5046226;28;20095;-66
2023/10/15 11:59:45;;;;;;;1999.90;999.90;;;10.80;99.90;;;;;;5050532;28;20040;-67
2023/10/15 12:02:11;;;;;;;1999.90;999.90;;;10.60;99.90;;;;;;5048821;28;20049;-67
2023/10/15 12:04:40;;;;;;;1999.90;999.90;;;10.50;99.90;;;;;;5048937;28;20029;-67
2023/10/15 12:07:15;;;;;;;1999.90;999.90;;;10.40;99.90;;;;;;5053057;28;20432;-78
2023/10/15 12:09:47;;;;;;;1999.90;999.90;;;10.30;99.90;;;;;;5044743;28;20121;-67
2023/10/15 12:12:13;;;;;;;1999.90;999.90;;;10.30;99.90;;;;;;5044290;28;20044;-66
2023/10/15 12:14:40;;;;;;;1999.90;999.90;;;10.30;99.90;;;;;;5047753;28;20367;-82
2023/10/15 12:17:06;;;;;;;1999.90;999.90;;;10.30;99.90;;;;;;5047768;28;20029;-67
2023/10/15 12:19:32;;;;;;;1999.90;999.90;;;10.20;99.90;;;;;;5038511;28;20025;-67
2023/10/15 12:21:58;;;;;;;1999.90;999.90;;;10.20;99.90;;;;;;5047726;28;20159;-67
2023/10/15 12:24:25;;;;;;;1999.90;999.90;;;10.30;99.90;;;;;;5052544;28;20426;-67
2023/10/15 12:26:51;;;;;;;1999.90;999.90;;;10.40;99.90;;;;;;5049993;28;20025;-66
2023/10/15 12:29:21;;;;;;;1999.90;999.90;;;10.70;99.90;;;;;;5049862;28;20108;-67